Weather observations for the past three days for
Hallock Municipal Airport
Imperial (Metric)
Date Time (cdt) Wind (mph) Vis. (mi.) Weather Sky Cond. Temperature (ºF) Relative Humidity Wind Chill (°F) Heat Index (°F) Pressure Precipitation (in)
Air Dwpt 6 hour altimeter (in) sea level (mb) 1 hr 3 hr 6 hr
Max. Min.
06 16:15 S 7 10.00 Overcast SCT031 BKN049 OVC070 82.4 77 84% 91 29.95 0.0
06 15:35 SE 8 10.00 Overcast SCT031 BKN050 OVC070 84.2 75.2 74% 92 29.96 0.0
06 15:15 SE 8 10.00 Overcast BKN031 BKN036 OVC043 82.4 75.2 79% 89 29.95 0.0
06 14:55 E 7 10.00 Overcast SCT031 OVC041 82.4 75.2 79% 89 29.94 0.0
06 14:35 E 8 10.00 Overcast BKN030 BKN036 OVC041 82.4 75.2 79% 89 29.93 0.0
06 14:15 E 9 10.00 Overcast SCT030 BKN036 OVC043 82.4 75.2 79% 89 29.93 0.0
06 13:55 E 7 10.00 Overcast BKN030 OVC036 82.4 75.2 79% 89 29.96 0.0
06 13:35 E 6 10.00 Mostly Cloudy BKN030 BKN036 84.2 75.2 74% 92 29.96 0.0
06 13:15 SE 9 10.00 Partly Cloudy SCT030 84.2 75.2 74% 92 29.97 0.0
06 12:55 E 10 G 16 10.00 Mostly Cloudy BKN032 84.2 75.2 74% 92 29.96 0.0
06 12:35 E 8 10.00 Mostly Cloudy BKN032 82.4 75.2 79% 89 29.97 0.0
06 12:15 E 9 10.00 Mostly Cloudy BKN032 82.4 75.2 79% 89 29.98 0.0
06 11:55 E 6 10.00 Fair CLR 80.6 73.4 79% 85 29.99 0.0
06 11:35 E 6 10.00 Partly Cloudy SCT060 80.6 73.4 79% 85 29.99 0.0
06 11:15 SE 7 10.00 Partly Cloudy SCT036 78.8 73.4 84% 82 30 0.0
06 10:55 SE 8 10.00 Mostly Cloudy BKN018 BKN036 77 73.4 89% 78 30.01 0.0
06 10:35 SE 6 10.00 Overcast OVC018 75.2 71.6 89% 75 30.02 0.0
06 10:15 SE 8 10.00 Overcast OVC016 73.4 71.6 94% 30.02 0.0
06 09:55 SE 3 10.00 Overcast OVC016 71.6 69.8 94% 30.02 0.0
06 09:35 E 3 10.00 Overcast OVC016 71.6 69.8 94% 30.02 0.0
06 09:15 E 3 10.00 Overcast OVC016 69.8 69.8 100% 30.02 0.0
06 08:55 E 5 10.00 Overcast OVC018 69.8 68 94% 30.02 0.0
06 08:35 E 5 10.00 Overcast OVC018 68 66.2 94% 30.02 0.0
06 08:15 E 6 10.00 Mostly Cloudy BKN020 66.2 66.2 100% 30.02 0.0
06 07:55 E 5 10.00 Fair CLR 66.2 66.2 100% 30.02 0.0
06 07:35 E 5 10.00 Partly Cloudy SCT065 64.4 64.4 100% 30.01 0.0
06 07:15 E 6 10.00 Partly Cloudy SCT065 64.4 64.4 100% 30.01 0.0
06 06:55 E 6 10.00 Partly Cloudy SCT065 62.6 62.6 100% 30.01 0.0
06 06:35 E 5 10.00 Partly Cloudy SCT065 SCT100 64.4 64.4 100% 30.01 0.0
06 06:15 E 5 10.00 Partly Cloudy SCT065 62.6 62.6 100% 30.01 0.0
06 05:55 E 5 10.00 Partly Cloudy SCT065 62.6 62.6 100% 30 0.0
06 05:35 E 3 10.00 Partly Cloudy SCT065 SCT110 62.6 62.6 100% 30 0.0
06 05:15 Calm 3.00 Fog/Mist SCT055 SCT110 60.8 60.8 100% 30 0.0
06 04:55 Calm 7.00 Partly Cloudy SCT055 62.6 62.6 100% 30 0.0
06 04:35 N 3 7.00 Partly Cloudy SCT055 SCT095 62.6 62.6 100% 30 0.0
06 04:15 Calm 10.00 Partly Cloudy SCT065 SCT100 62.6 62.6 100% 29.99 0.0
06 03:55 NE 3 10.00 Partly Cloudy SCT065 SCT100 64.4 64.4 100% 29.99 0.0
06 03:35 Calm 10.00 Partly Cloudy SCT065 SCT070 SCT100 66.2 64.4 94% 29.99 0.0
06 03:15 Calm 10.00 Partly Cloudy SCT065 66.2 64.4 94% 29.98 0.0
06 02:55 SE 6 10.00 Partly Cloudy SCT065 66.2 64.4 94% 29.98 0.0
06 02:35 SE 7 10.00 Partly Cloudy SCT065 66.2 64.4 94% 29.99 0.0
06 02:15 SE 8 10.00 Partly Cloudy SCT065 66.2 64.4 94% 29.99 0.0
06 01:55 SE 9 10.00 Partly Cloudy SCT065 SCT070 SCT100 66.2 64.4 94% 29.99 0.0
06 01:35 SE 7 10.00 Partly Cloudy SCT065 SCT110 66.2 64.4 94% 29.99 0.0
06 01:15 SE 9 10.00 Partly Cloudy SCT065 66.2 66.2 100% 29.99 0.0
06 00:55 SE 9 10.00 Partly Cloudy SCT065 66.2 66.2 100% 29.99 0.0
06 00:35 SE 9 10.00 Partly Cloudy SCT065 SCT100 68 66.2 94% 29.99 0.0
06 00:15 SE 8 10.00 Partly Cloudy SCT065 SCT070 SCT110 69.8 66.2 88% 29.99 0.0
05 23:55 SE 9 10.00 Partly Cloudy SCT065 69.8 66.2 88% 29.99 0.0
05 23:35 SE 6 10.00 Partly Cloudy SCT065 69.8 66.2 88% 30 0.0
05 23:15 SE 15 10.00 Partly Cloudy SCT065 69.8 66.2 88% 29.99 0.0
05 22:55 SE 9 10.00 Partly Cloudy SCT065 SCT110 69.8 66.2 88% 30 0.0
05 22:35 SE 15 10.00 Partly Cloudy SCT065 SCT095 69.8 66.2 88% 29.99 0.0
05 22:15 SE 14 10.00 Partly Cloudy SCT065 69.8 66.2 88% 30.01 0.0
05 21:55 SE 10 10.00 Partly Cloudy SCT065 71.6 68 88% 30 0.0
05 21:35 E 8 10.00 Partly Cloudy SCT055 SCT100 69.8 68 94% 30.01 0.0
05 21:15 E 7 10.00 Partly Cloudy SCT055 SCT065 71.6 68 88% 30.01 0.0
05 20:55 E 6 10.00 Mostly Cloudy BKN039 BKN100 71.6 69.8 94% 30.02 0.0
05 20:35 NE 5 10.00 Mostly Cloudy BKN039 71.6 69.8 94% 30.01 0.0
05 20:15 N 7 10.00 Partly Cloudy SCT039 SCT060 SCT100 69.8 68 94% 30.01 0.0
05 19:55 N 3 10.00 Partly Cloudy SCT060 71.6 69.8 94% 29.99 0.0
05 19:35 NE 3 10.00 Partly Cloudy SCT060 75.2 69.8 83% 75 29.97 0.0
05 19:15 E 7 10.00 Partly Cloudy SCT060 77 69.8 79% 79 29.95 0.0
05 18:55 NE 5 10.00 Fair CLR 78.8 69.8 74% 81 29.95 0.0
05 18:35 E 7 10.00 Fair CLR 77 69.8 79% 79 29.94 0.0
05 18:15 E 8 10.00 Partly Cloudy SCT110 75.2 69.8 83% 75 29.93 0.0
05 17:55 E 12 10.00 Fair CLR 75.2 69.8 83% 75 29.92 0.0
05 17:35 E 9 10.00 Fair CLR 75.2 69.8 83% 75 29.92 0.0
05 17:15 E 7 10.00 Fair CLR 75.2 68 78% 76 29.94 0.0
05 16:55 E 7 10.00 Partly Cloudy SCT070 77 69.8 79% 79 29.94 0.0
05 16:35 E 5 10.00 Fair CLR 78.8 69.8 74% 81 29.95 0.0
05 16:15 Calm 10.00 Partly Cloudy SCT110 75.2 69.8 83% 75 29.96 0.0
05 15:55 Calm 10.00 Fair CLR 77 69.8 79% 79 29.96 0.0
05 15:35 SE 3 10.00 Fair CLR 77 69.8 79% 79 29.96 0.0
05 15:15 E 8 10.00 Partly Cloudy SCT070 77 69.8 79% 79 29.96 0.0
05 12:55 S 15 10.00 Fair CLR 68 66.2 94% 30 0.0
05 12:35 SE 16 10.00 Fair CLR 66.2 66.2 100% 30 0.0
05 12:15 SE 17 G 22 10.00 Fair CLR 66.2 64.4 94% 30 0.0
05 11:55 E 16 G 20 10.00 Partly Cloudy SCT020 SCT025 64.4 64.4 100% 30.02 0.0
05 11:35 E 12 5.00 Rain SCT019 BKN028 OVC065 64.4 64.4 100% 30.05 0.0
05 11:15 E 5 10.00 Light Rain SCT007 SCT029 BKN070 64.4 64.4 100% 30.08 0.0
05 10:55 E 5 10.00 Light Rain BKN007 BKN065 66.2 64.4 94% 30.08 0.0
05 10:35 N 9 10.00 Mostly Cloudy BKN007 66.2 64.4 94% 30.07 0.0
05 10:15 N 7 10.00 Overcast OVC007 66.2 64.4 94% 30.08 0.0
05 09:55 N 12 10.00 Overcast OVC009 66.2 64.4 94% 30.09 0.0
05 09:35 NW 8 10.00 Mostly Cloudy BKN009 66.2 64.4 94% 30.08 0.0
05 09:15 N 3 10.00 Mostly Cloudy BKN007 66.2 64.4 94% 30.07 0.0
05 08:55 Calm 10.00 Overcast OVC007 66.2 64.4 94% 30.05 0.0
05 08:35 Calm 10.00 Overcast OVC007 64.4 64.4 100% 30.04 0.0
05 08:15 SW 3 10.00 Partly Cloudy SCT009 64.4 64.4 100% 30.04 0.0
05 07:55 SE 6 10.00 Fair CLR 64.4 64.4 100% 30.01 0.0
05 07:35 SE 3 10.00 Partly Cloudy SCT065 62.6 62.6 100% 30.01 0.0
05 07:15 SE 8 10.00 Partly Cloudy SCT065 62.6 62.6 100% 29.98 0.0
05 06:55 SE 3 10.00 Partly Cloudy SCT065 62.6 62.6 100% 29.99 0.0
05 06:35 E 3 10.00 Partly Cloudy SCT065 62.6 62.6 100% 29.98 0.0
05 06:15 E 6 10.00 Partly Cloudy SCT065 62.6 62.6 100% 29.97 0.0
05 05:55 E 9 10.00 Partly Cloudy SCT065 62.6 62.6 100% 29.96 0.0
05 05:35 E 8 10.00 Partly Cloudy SCT065 62.6 62.6 100% 29.96 0.0
05 05:15 E 7 10.00 Partly Cloudy SCT055 64.4 64.4 100% 29.97 0.0
05 04:55 E 6 10.00 Partly Cloudy SCT055 SCT065 62.6 62.6 100% 29.98 0.0
05 04:35 Calm 10.00 Partly Cloudy SCT065 SCT100 62.6 62.6 100% 29.98 0.0
05 04:15 E 3 7.00 Partly Cloudy SCT065 SCT100 62.6 62.6 100% 29.97 0.0
05 03:55 E 8 7.00 Partly Cloudy SCT065 SCT100 62.6 62.6 100% 29.98 0.0
05 03:35 E 5 10.00 Partly Cloudy SCT065 SCT100 62.6 62.6 100% 30 0.0
05 03:15 Calm 10.00 Partly Cloudy SCT055 62.6 62.6 100% 30 0.0
05 02:55 E 6 10.00 Partly Cloudy SCT055 62.6 62.6 100% 30 0.0
05 02:35 E 5 10.00 Partly Cloudy SCT055 SCT100 62.6 62.6 100% 29.99 0.0
05 02:15 E 6 10.00 Partly Cloudy SCT065 SCT070 SCT100 64.4 62.6 94% 29.99 0.0
05 01:55 E 6 10.00 Partly Cloudy SCT065 64.4 62.6 94% 29.99 0.0
05 01:35 E 6 10.00 Partly Cloudy SCT065 SCT100 64.4 64.4 100% 29.99 0.0
05 01:15 E 6 10.00 Partly Cloudy SCT065 SCT100 64.4 64.4 100% 29.99 0.0
05 00:55 E 7 10.00 Partly Cloudy SCT065 SCT100 64.4 64.4 100% 29.98 0.0
05 00:35 E 7 10.00 Partly Cloudy SCT065 64.4 64.4 100% 29.98 0.0
05 00:15 E 9 10.00 Partly Cloudy SCT065 SCT095 66.2 64.4 94% 29.98 0.0
04 23:55 E 8 10.00 Partly Cloudy SCT065 SCT095 66.2 64.4 94% 29.98 0.0
04 23:35 E 10 10.00 Partly Cloudy SCT065 SCT095 66.2 64.4 94% 29.98 0.0
04 23:15 E 9 10.00 Partly Cloudy SCT055 SCT065 SCT100 66.2 64.4 94% 29.98 0.0
04 22:55 E 10 10.00 Partly Cloudy SCT065 SCT070 66.2 64.4 94% 29.98 0.0
04 22:35 E 8 10.00 Partly Cloudy SCT065 SCT100 66.2 64.4 94% 29.99 0.0
04 22:15 E 8 10.00 Partly Cloudy SCT065 SCT100 66.2 64.4 94% 29.99 0.0
04 21:55 E 7 10.00 Partly Cloudy SCT055 SCT100 66.2 64.4 94% 29.99 0.0
04 21:35 E 8 10.00 Partly Cloudy SCT055 SCT100 68 64.4 88% 29.98 0.0
04 21:15 E 8 10.00 Partly Cloudy SCT065 SCT100 69.8 66.2 88% 29.98 0.0
04 20:55 E 8 10.00 Partly Cloudy SCT065 SCT100 69.8 66.2 88% 29.98 0.0
04 20:35 E 7 10.00 Partly Cloudy SCT065 69.8 66.2 88% 29.97 0.0
04 20:15 E 7 10.00 Partly Cloudy SCT065 SCT110 71.6 66.2 83% 29.97 0.0
04 19:55 E 7 10.00 Partly Cloudy SCT065 73.4 66.2 78% 29.96 0.0
04 19:35 E 9 10.00 Partly Cloudy SCT065 SCT100 75.2 66.2 74% 77 29.96 0.0
04 19:15 E 9 10.00 Partly Cloudy SCT065 77 68 74% 79 29.95 0.0
04 18:55 E 9 10.00 Partly Cloudy SCT065 SCT100 78.8 68 70% 81 29.96 0.0
04 18:35 E 9 10.00 Partly Cloudy SCT065 SCT110 80.6 69.8 70% 84 29.96 0.0
04 18:15 E 10 10.00 Partly Cloudy SCT100 80.6 69.8 70% 84 29.95 0.0
04 17:55 E 6 10.00 Partly Cloudy SCT060 SCT100 82.4 68 62% 85 29.95 0.0
04 17:35 SE 5 10.00 Partly Cloudy SCT100 82.4 66.2 58% 85 29.95 0.0
04 17:15 Calm 10.00 Partly Cloudy SCT065 82.4 66.2 58% 85 29.94 0.0
04 16:55 Calm 10.00 Fair CLR 80.6 66.2 62% 83 29.94 0.0
04 16:35 E 3 10.00 Partly Cloudy SCT039 82.4 68 62% 85 29.95 0.0
04 16:15 Calm 10.00 Partly Cloudy SCT039 SCT100 80.6 68 66% 83 29.95 0.0
04 15:55 NE 3 10.00 Partly Cloudy SCT070 SCT110 80.6 68 66% 83 29.95 0.0
04 15:35 Calm 10.00 Partly Cloudy SCT070 80.6 66.2 62% 83 29.95 0.0
04 15:15 Calm 10.00 Partly Cloudy SCT100 80.6 66.2 62% 83 29.96 0.0
04 14:55 Calm 10.00 Partly Cloudy SCT100 78.8 68 70% 81 29.96 0.0
04 14:35 Calm 10.00 Partly Cloudy SCT110 78.8 69.8 74% 81 29.96 0.0
04 14:15 Calm 10.00 Fair CLR 77 69.8 79% 79 29.96 0.0
04 13:55 Calm 10.00 Partly Cloudy SCT060 78.8 69.8 74% 81 29.97 0.0
04 13:35 Calm 10.00 Fair CLR 75.2 68 78% 76 29.96 0.0
04 13:15 Calm 10.00 Partly Cloudy SCT100 75.2 66.2 74% 77 29.96 0.0
04 12:55 Calm 10.00 Fair CLR 75.2 68 78% 76 29.97 0.0
04 12:35 Calm 10.00 Partly Cloudy SCT019 73.4 69.8 89% 29.97 0.0
04 12:15 Calm 10.00 Partly Cloudy SCT017 SCT065 SCT110 73.4 69.8 89% 29.97 0.0
04 11:55 Calm 10.00 Partly Cloudy SCT065 71.6 69.8 94% 29.96 0.0
04 11:35 N 5 10.00 Partly Cloudy SCT012 SCT065 71.6 69.8 94% 29.96 0.0
04 11:15 Calm 10.00 Partly Cloudy SCT012 SCT065 71.6 68 88% 29.96 0.0
04 10:55 Calm 10.00 Partly Cloudy SCT065 69.8 66.2 88% 29.96 0.0
04 10:35 Calm 10.00 Partly Cloudy SCT009 68 66.2 94% 29.96 0.0
04 10:15 NE 5 10.00 Mostly Cloudy BKN009 68 66.2 94% 29.95 0.0
04 09:55 Calm 10.00 Partly Cloudy SCT060 66.2 66.2 100% 29.95 0.0
04 09:35 Calm 10.00 Fair CLR 64.4 64.4 100% 29.95 0.0
04 09:15 Calm 10.00 Partly Cloudy SCT060 64.4 64.4 100% 29.94 0.0
04 08:55 Calm 10.00 Partly Cloudy SCT060 62.6 62.6 100% 29.94 0.0
04 08:35 NE 3 10.00 Partly Cloudy SCT060 SCT070 SCT100 62.6 62.6 100% 29.93 0.0
04 08:15 Calm 10.00 NULL NULL 60.8 60.8 100% 29.93 0.0
04 07:55 NE 3 0.50 Fog OVC002 59 59 100% 29.93 0.0
04 07:35 NE 3 0.15 Fog NULL 57.2 57.2 100% 29.93 0.0
04 07:15 Calm 0.15 Fog OVC002 57.2 57.2 100% 29.94 0.0
04 06:55 N 3 0.15 Fog NULL 57.2 57.2 100% 29.93 0.0
04 06:35 Calm 0.15 Fog OVC002 57.2 57.2 100% 29.92 0.0
04 06:15 Calm 0.50 Fog NULL 55.4 55.4 100% 29.92 0.0
04 05:55 Calm 0.25 Fog OVC002 57.2 57.2 100% 29.91 0.0
04 05:35 NW 3 0.15 Fog OVC002 55.4 55.4 100% 29.9 0.0
04 05:15 NW 5 0.15 Fog NULL 57.2 57.2 100% 29.9 0.0
04 04:55 NW 3 0.50 Fog NULL 55.4 55.4 100% 29.89 0.0
04 04:35 W 5 4.00 Fog/Mist SCT060 57.2 57.2 100% 29.89 0.0
04 04:15 Calm 3.00 Fog/Mist SCT060 SCT095 57.2 57.2 100% 29.88 0.0
04 03:55 NW 3 5.00 Fog/Mist SCT060 60.8 60.8 100% 29.88 0.0
04 03:35 Calm 10.00 Partly Cloudy SCT060 SCT100 60.8 60.8 100% 29.87 0.0
04 03:15 E 3 10.00 Partly Cloudy SCT060 SCT100 60.8 60.8 100% 29.86 0.0
04 02:55 E 3 10.00 Partly Cloudy SCT060 62.6 60.8 94% 29.86 0.0
04 02:35 E 6 10.00 Partly Cloudy SCT070 SCT100 62.6 60.8 94% 29.86 0.0
04 02:15 E 6 10.00 Partly Cloudy SCT060 SCT100 62.6 60.8 94% 29.86 0.0
04 01:55 E 6 10.00 Partly Cloudy SCT060 62.6 60.8 94% 29.87 0.0
04 01:35 E 6 10.00 Partly Cloudy SCT060 SCT100 62.6 62.6 100% 29.87 0.0
04 01:15 E 5 10.00 Partly Cloudy SCT060 60.8 60.8 100% 29.87 0.0
04 00:55 NE 5 10.00 Partly Cloudy SCT100 60.8 60.8 100% 29.87 0.0
04 00:35 Calm 10.00 Mostly Cloudy BKN100 62.6 62.6 100% 29.88 0.0
04 00:15 Calm 10.00 Overcast OVC100 62.6 62.6 100% 29.87 0.0
03 23:55 Calm 7.00 Overcast OVC100 62.6 62.6 100% 29.87 0.0
03 23:35 Calm 5.00 Fog/Mist OVC100 62.6 62.6 100% 29.87 0.0
03 23:15 NE 5 7.00 Mostly Cloudy SCT060 BKN100 62.6 62.6 100% 29.86 0.0
03 22:55 N 5 7.00 Mostly Cloudy SCT060 BKN110 62.6 62.6 100% 29.86 0.0
03 22:35 N 3 7.00 Mostly Cloudy BKN110 62.6 62.6 100% 29.85 0.0
03 22:15 N 3 5.00 Fog/Mist SCT060 BKN110 62.6 62.6 100% 29.84 0.0
03 21:55 Calm 5.00 Fog/Mist SCT060 BKN110 62.6 60.8 94% 29.84 0.0
03 21:35 Calm 10.00 Partly Cloudy SCT060 SCT100 62.6 62.6 100% 29.83 0.0
03 21:15 N 5 10.00 Partly Cloudy SCT060 SCT100 64.4 64.4 100% 29.83 0.0
03 20:55 N 5 10.00 Partly Cloudy SCT030 SCT060 SCT100 64.4 64.4 100% 29.85 0.0
03 20:35 Calm 10.00 Light Rain SCT023 BKN032 BKN060 66.2 64.4 94% 29.84 0.0
03 20:15 W 3 10.00 Light Drizzle BKN023 66.2 66.2 100% 29.86 0.0
03 19:55 NW 8 7.00 Light Rain BKN023 BKN034 66.2 66.2 100% 29.82 0.0
03 19:35 NW 12 G 21 10.00 Thunderstorm Light Rain in Vicinity BKN022 BKN047 66.2 66.2 100% 29.84 0.0
03 19:15 NW 15 G 22 10.00 Light Rain SCT022 66.2 66.2 100% 29.8 0.0
03 18:55 SE 9 G 16 10.00 Thunderstorm in Vicinity OVC120 66.2 66.2 100% 29.74 0.0
03 18:35 SE 12 G 18 10.00 Partly Cloudy SCT120 66.2 66.2 100% 29.7 0.0
03 18:15 E 15 G 24 10.00 Fair CLR 66.2 66.2 100% 29.7 0.0
03 17:55 E 12 G 17 10.00 Light Rain CLR 66.2 64.4 94% 29.71 0.0
03 17:35 E 14 G 22 10.00 Partly Cloudy SCT023 SCT038 SCT065 66.2 64.4 94% 29.71 0.0
03 17:15 E 16 G 23 7.00 Light Rain SCT027 SCT041 BKN060 66.2 64.4 94% 29.7 0.0
03 16:55 E 17 G 30 10.00 Thunderstorm in Vicinity SCT065 BKN070 66.2 64.4 94% 29.67 0.0
03 16:35 E 21 G 28 10.00 Light Drizzle and Breezy SCT028 BKN065 66.2 64.4 94% 29.7 0.0
Date Time (cdt) Wind (mph) Vis. (mi.) Weather Sky Cond. Air Dwpt Max. Min. Relative Humidity Wind Chill (°F) Heat Index (°F) altimeter (in) sea level (mb) 1 hr 3 hr 6 hr
6 hour
Temperature (ºF) Pressure Precipitation (in)